createdAt,value
2018-12-19T00:01:33.294Z,13.40
2018-12-19T00:04:36.515Z,13.00
2018-12-19T00:07:39.772Z,11.37
2018-12-19T00:10:43.028Z,14.13
2018-12-19T00:13:46.282Z,10.30
2018-12-19T00:16:49.512Z,10.57
2018-12-19T00:19:52.737Z,11.93
2018-12-19T00:22:55.969Z,14.47
2018-12-19T00:25:59.193Z,12.23
2018-12-19T00:29:02.441Z,12.57
2018-12-19T00:32:05.657Z,10.83
2018-12-19T00:35:08.892Z,11.80
2018-12-19T00:38:12.140Z,11.07
2018-12-19T00:41:15.398Z,15.30
2018-12-19T00:44:18.620Z,12.57
2018-12-19T00:47:21.865Z,12.37
2018-12-19T00:50:25.125Z,15.60
2018-12-19T00:53:28.378Z,14.50
2018-12-19T00:56:31.592Z,11.27
2018-12-19T00:59:34.832Z,13.37
2018-12-19T01:02:38.080Z,12.70
2018-12-19T01:05:41.305Z,14.17
2018-12-19T01:08:44.535Z,14.70
2018-12-19T01:11:47.755Z,13.23
2018-12-19T01:14:50.983Z,12.90
2018-12-19T01:17:54.288Z,12.47
2018-12-19T01:20:57.518Z,10.53
2018-12-19T01:24:00.757Z,10.80
2018-12-19T01:27:04.001Z,12.80
2018-12-19T01:30:07.321Z,11.30
2018-12-19T01:33:10.554Z,10.50
2018-12-19T01:36:13.776Z,12.73
2018-12-19T01:39:22.501Z,10.13
2018-12-19T01:42:22.240Z,11.83
2018-12-19T01:45:25.478Z,9.90
2018-12-19T01:48:28.785Z,10.23
2018-12-19T01:51:32.133Z,13.77
2018-12-19T01:54:35.367Z,12.40
2018-12-19T01:57:38.585Z,10.37
2018-12-19T02:00:41.820Z,11.73
2018-12-19T02:03:45.047Z,9.80
2018-12-19T02:06:48.276Z,11.73
2018-12-19T02:09:51.592Z,11.70
2018-12-19T02:12:54.817Z,10.27
2018-12-19T02:15:58.048Z,12.47
2018-12-19T02:19:01.271Z,12.60
2018-12-19T02:22:04.533Z,11.47
2018-12-19T02:25:07.828Z,8.53
2018-12-19T02:28:11.051Z,11.80
2018-12-19T02:31:14.338Z,10.97
2018-12-19T02:34:17.593Z,10.83
2018-12-19T02:37:20.812Z,10.57
2018-12-19T02:40:24.040Z,9.80
2018-12-19T02:43:27.387Z,10.77
2018-12-19T02:46:30.596Z,11.33
2018-12-19T02:49:33.838Z,10.77
2018-12-19T02:52:37.135Z,11.87
2018-12-19T02:55:40.364Z,12.60
2018-12-19T02:58:43.609Z,11.33
2018-12-19T03:01:46.834Z,11.50
2018-12-19T03:04:50.073Z,12.70
2018-12-19T03:07:53.292Z,11.47
2018-12-19T03:10:56.978Z,11.20
2018-12-19T03:14:00.236Z,12.93
2018-12-19T03:17:03.598Z,12.43
2018-12-19T03:20:06.852Z,10.87
2018-12-19T03:23:10.081Z,12.20
2018-12-19T03:26:13.296Z,11.70
2018-12-19T03:29:16.529Z,11.70
2018-12-19T03:32:19.783Z,15.37
2018-12-19T03:35:23.152Z,13.70
2018-12-19T03:38:26.532Z,17.33
2018-12-19T03:41:29.841Z,13.53
2018-12-19T03:44:33.123Z,16.87
2018-12-19T03:47:36.351Z,13.90
2018-12-19T03:50:39.616Z,15.93
2018-12-19T03:53:42.847Z,15.37
2018-12-19T03:56:46.683Z,13.50
2018-12-19T03:59:49.922Z,13.60
2018-12-19T04:02:53.252Z,14.93
2018-12-19T04:05:56.604Z,14.80
2018-12-19T04:08:59.804Z,16.83
2018-12-19T04:12:03.384Z,11.83
2018-12-19T04:15:06.672Z,16.63
2018-12-19T04:18:09.973Z,14.50
2018-12-19T04:21:13.254Z,16.23
2018-12-19T04:24:16.519Z,13.63
2018-12-19T04:27:19.792Z,14.47
2018-12-19T04:30:23.118Z,12.43
2018-12-19T04:33:26.491Z,11.03
2018-12-19T04:36:29.704Z,13.37
2018-12-19T04:39:32.985Z,12.63
2018-12-19T04:42:36.227Z,11.13
2018-12-19T04:45:39.448Z,10.83
2018-12-19T04:48:42.673Z,10.37
2018-12-19T04:51:45.958Z,11.47
2018-12-19T04:54:49.295Z,11.63
2018-12-19T04:57:52.609Z,12.80
2018-12-19T05:00:55.879Z,10.00
2018-12-19T05:03:59.116Z,10.73
2018-12-19T05:07:02.381Z,13.70
2018-12-19T05:10:12.154Z,12.30
2018-12-19T05:13:16.792Z,12.43
2018-12-19T05:16:20.104Z,10.47
2018-12-19T05:19:23.330Z,11.93
2018-12-19T05:22:26.619Z,9.93
2018-12-19T05:25:29.822Z,9.60
2018-12-19T05:28:33.042Z,11.60
2018-12-19T05:31:36.264Z,13.80
2018-12-19T05:34:39.509Z,11.30
2018-12-19T05:37:42.768Z,9.93
2018-12-19T05:40:46.021Z,9.47
2018-12-19T05:43:49.236Z,11.07
2018-12-19T05:46:52.488Z,12.40
2018-12-19T05:49:56.051Z,12.17
2018-12-19T05:52:59.376Z,10.70
2018-12-19T05:56:02.692Z,10.43
2018-12-19T05:59:05.912Z,11.13
2018-12-19T06:02:09.145Z,9.77
2018-12-19T06:05:12.370Z,9.20
2018-12-19T06:08:15.601Z,9.37
2018-12-19T06:11:18.857Z,10.77
2018-12-19T06:14:22.178Z,10.37
2018-12-19T06:17:25.417Z,9.13
2018-12-19T06:20:28.654Z,9.03
2018-12-19T06:23:31.881Z,12.03
2018-12-19T06:26:35.106Z,12.60
2018-12-19T06:29:38.367Z,8.30
2018-12-19T06:32:41.603Z,8.63
2018-12-19T06:35:44.828Z,8.00
2018-12-19T06:38:48.060Z,12.33
2018-12-19T06:41:51.308Z,10.93
2018-12-19T06:44:54.528Z,13.67
2018-12-19T06:47:57.812Z,12.47
2018-12-19T06:51:01.049Z,10.60
2018-12-19T06:54:04.292Z,12.03
2018-12-19T06:57:07.541Z,10.57
2018-12-19T07:00:10.825Z,12.10
2018-12-19T07:03:14.180Z,10.20
2018-12-19T07:06:17.466Z,10.40
2018-12-19T07:09:20.750Z,11.83
2018-12-19T07:12:23.985Z,11.57
2018-12-19T07:15:27.301Z,14.80
2018-12-19T07:18:30.519Z,11.50
2018-12-19T07:21:33.775Z,12.77
2018-12-19T07:24:36.973Z,13.73
2018-12-19T07:27:40.196Z,12.07
2018-12-19T07:30:43.421Z,12.77
2018-12-19T07:33:46.757Z,10.53
2018-12-19T07:36:49.977Z,11.47
2018-12-19T07:39:53.193Z,9.83
2018-12-19T07:42:56.453Z,10.63
2018-12-19T07:45:59.697Z,8.90
2018-12-19T07:49:02.924Z,10.23
2018-12-19T07:52:06.181Z,15.50
2018-12-19T07:55:09.431Z,14.50
2018-12-19T07:58:12.724Z,13.53
2018-12-19T08:01:17.386Z,11.87
2018-12-19T08:07:33.894Z,14.40
2018-12-19T08:10:37.120Z,15.03
2018-12-19T08:13:40.436Z,15.63
2018-12-19T08:16:43.712Z,25.77
2018-12-19T08:19:46.938Z,23.93
2018-12-19T08:22:50.190Z,14.87
2018-12-19T08:25:53.421Z,17.53
2018-12-19T08:28:56.652Z,16.10
2018-12-19T08:31:59.892Z,19.57
2018-12-19T08:35:03.587Z,20.27
2018-12-19T08:38:06.856Z,20.17
2018-12-19T08:41:10.091Z,15.10
2018-12-19T08:44:13.342Z,17.53
2018-12-19T08:47:16.579Z,15.83
2018-12-19T08:50:19.824Z,14.87
2018-12-19T08:53:23.069Z,24.23
2018-12-19T08:56:26.317Z,17.73
2018-12-19T08:59:29.564Z,18.07
2018-12-19T09:02:32.795Z,18.60
2018-12-19T09:05:36.016Z,17.77
2018-12-19T09:08:39.253Z,18.70
2018-12-19T09:11:42.478Z,18.07
2018-12-19T09:14:45.802Z,21.57
2018-12-19T09:17:49.013Z,17.87
2018-12-19T09:20:52.261Z,20.03
2018-12-19T09:23:55.489Z,16.83
2018-12-19T09:26:58.785Z,16.03
2018-12-19T09:30:02.052Z,17.47
2018-12-19T09:33:05.384Z,20.57
2018-12-19T09:36:08.696Z,22.17
2018-12-19T09:39:11.928Z,15.77
2018-12-19T09:42:15.156Z,21.17
2018-12-19T09:45:18.404Z,20.93
2018-12-19T09:48:21.631Z,18.23
2018-12-19T09:51:24.960Z,22.33
2018-12-19T09:54:28.285Z,17.77
2018-12-19T09:57:31.534Z,22.87
2018-12-19T10:00:34.756Z,23.70
2018-12-19T10:03:38.085Z,22.57
2018-12-19T10:06:41.327Z,17.50
2018-12-19T10:09:44.566Z,17.93
2018-12-19T10:12:47.792Z,21.23
2018-12-19T10:15:51.025Z,19.57
2018-12-19T10:18:54.254Z,19.67
2018-12-19T10:21:57.485Z,19.07
2018-12-19T10:25:06.717Z,19.10
2018-12-19T10:28:09.976Z,16.77
2018-12-19T10:31:13.242Z,15.30
2018-12-19T10:34:16.566Z,15.17
2018-12-19T10:37:19.796Z,14.50
2018-12-19T10:40:23.133Z,14.10
2018-12-19T10:43:26.399Z,17.50
2018-12-19T10:46:29.639Z,19.50
2018-12-19T10:49:32.928Z,16.43
2018-12-19T10:52:36.136Z,18.60
2018-12-19T10:55:39.385Z,21.47
2018-12-19T10:58:42.617Z,19.57
2018-12-19T11:01:45.844Z,20.23
2018-12-19T11:04:49.074Z,17.87
2018-12-19T11:07:52.313Z,17.63
2018-12-19T11:10:55.621Z,19.03
2018-12-19T11:13:58.863Z,20.53
2018-12-19T11:17:02.112Z,20.13
2018-12-19T11:20:09.148Z,20.13
2018-12-19T11:23:12.396Z,23.27
2018-12-19T11:26:15.982Z,27.97
2018-12-19T11:29:19.211Z,16.87
2018-12-19T11:32:22.476Z,22.40
2018-12-19T11:35:25.711Z,19.23
2018-12-19T11:38:28.947Z,19.37
2018-12-19T11:41:38.773Z,19.97
2018-12-19T11:44:37.384Z,19.27
2018-12-19T11:47:40.696Z,18.53
2018-12-19T11:50:43.904Z,18.10
2018-12-19T11:53:47.162Z,20.50
2018-12-19T11:56:50.413Z,19.83
2018-12-19T11:59:53.649Z,15.80
2018-12-19T12:02:56.880Z,18.47
2018-12-19T12:06:00.108Z,18.60
2018-12-19T12:09:05.814Z,16.30
2018-12-19T12:12:09.061Z,22.40
2018-12-19T12:15:12.291Z,19.07
2018-12-19T12:18:15.519Z,21.33
2018-12-19T12:21:18.747Z,25.03
2018-12-19T12:24:22.002Z,20.33
2018-12-19T12:27:25.216Z,22.77
2018-12-19T12:30:28.443Z,20.90
2018-12-19T12:33:31.669Z,23.93
2018-12-19T12:36:34.933Z,27.83
2018-12-19T12:39:38.367Z,21.43
2018-12-19T12:42:41.592Z,23.07
2018-12-19T12:45:44.848Z,25.30
2018-12-19T12:48:48.108Z,22.77
2018-12-19T12:51:51.470Z,21.03
2018-12-19T12:54:54.678Z,31.00
2018-12-19T12:57:57.936Z,24.10
2018-12-19T13:01:01.190Z,27.37
2018-12-19T13:04:04.452Z,30.17
2018-12-19T13:07:07.673Z,23.63
2018-12-19T13:10:12.848Z,27.93
2018-12-19T13:13:16.086Z,31.03
2018-12-19T13:16:19.317Z,25.10
2018-12-19T13:19:22.561Z,30.23
2018-12-19T13:22:25.782Z,22.33
2018-12-19T13:25:29.097Z,29.37
2018-12-19T13:28:32.327Z,29.17
2018-12-19T13:31:35.665Z,27.50
2018-12-19T13:34:38.889Z,28.00
2018-12-19T13:37:42.134Z,26.77
2018-12-19T13:40:45.392Z,23.97
2018-12-19T13:43:48.649Z,24.17
2018-12-19T13:46:51.872Z,26.07
2018-12-19T13:49:55.173Z,28.93
2018-12-19T13:52:58.404Z,28.97
2018-12-19T13:56:01.634Z,29.03
2018-12-19T13:59:04.915Z,30.90
2018-12-19T14:02:08.221Z,24.97
2018-12-19T14:05:11.448Z,27.40
2018-12-19T14:08:14.760Z,30.73
2018-12-19T14:11:17.985Z,26.80
2018-12-19T14:14:21.216Z,23.20
2018-12-19T14:17:24.467Z,22.10
2018-12-19T14:20:27.725Z,28.70
2018-12-19T14:23:30.956Z,28.97
2018-12-19T14:26:34.227Z,26.90
2018-12-19T14:29:37.506Z,23.00
2018-12-19T14:32:40.786Z,28.00
2018-12-19T14:35:44.025Z,29.00
2018-12-19T14:38:47.371Z,28.97
2018-12-19T14:41:50.678Z,25.17
2018-12-19T14:44:53.891Z,22.33
2018-12-19T14:47:57.152Z,19.27
2018-12-19T14:51:00.630Z,21.87
2018-12-19T14:54:04.016Z,20.57
2018-12-19T14:57:07.239Z,21.27
2018-12-19T15:00:10.968Z,20.47
2018-12-19T15:03:14.196Z,18.47
2018-12-19T15:06:17.436Z,14.70
2018-12-19T15:09:20.761Z,18.13
2018-12-19T15:12:25.950Z,18.40
2018-12-19T15:15:29.217Z,20.03
2018-12-19T15:18:32.504Z,22.73
2018-12-19T15:21:35.775Z,23.67
2018-12-19T15:24:38.988Z,25.33
2018-12-19T15:27:42.236Z,27.27
2018-12-19T15:30:45.470Z,21.33
2018-12-19T15:33:48.777Z,20.57
2018-12-19T15:36:51.988Z,22.07
2018-12-19T15:39:55.226Z,18.73
2018-12-19T15:42:58.444Z,19.83
2018-12-19T15:46:01.704Z,19.97
2018-12-19T15:49:04.976Z,23.47
2018-12-19T15:52:08.255Z,23.70
2018-12-19T15:55:11.460Z,19.77
2018-12-19T15:58:14.745Z,27.67
2018-12-19T16:01:17.960Z,22.70
2018-12-19T16:04:21.237Z,25.97
2018-12-19T16:07:24.439Z,25.57
2018-12-19T16:10:27.813Z,22.60
2018-12-19T16:13:31.039Z,17.03
2018-12-19T16:16:34.280Z,16.67
2018-12-19T16:19:37.513Z,15.53
2018-12-19T16:22:40.810Z,17.27
2018-12-19T16:25:44.051Z,16.20
2018-12-19T16:28:47.278Z,14.43
2018-12-19T16:31:50.505Z,17.07
2018-12-19T16:34:53.733Z,16.00
2018-12-19T16:37:56.956Z,17.17
2018-12-19T16:41:00.205Z,19.13
2018-12-19T16:44:03.464Z,14.90
2018-12-19T16:47:06.693Z,17.67
2018-12-19T16:50:09.932Z,17.13
2018-12-19T16:53:13.157Z,18.43
2018-12-19T16:56:16.391Z,17.93
2018-12-19T16:59:19.620Z,16.60
2018-12-19T17:02:22.873Z,16.40
2018-12-19T17:05:26.113Z,17.37
2018-12-19T17:08:29.331Z,17.80
2018-12-19T17:11:32.555Z,18.33
2018-12-19T17:14:35.789Z,18.13
2018-12-19T17:17:39.007Z,19.33
2018-12-19T17:20:42.237Z,16.73
2018-12-19T17:23:45.452Z,17.87
2018-12-19T17:26:48.680Z,14.47
2018-12-19T17:29:51.953Z,17.17
2018-12-19T17:32:55.281Z,19.37
2018-12-19T17:35:58.504Z,19.13
2018-12-19T17:39:01.812Z,21.20
2018-12-19T17:42:05.057Z,18.70
2018-12-19T17:45:08.457Z,20.03
2018-12-19T17:48:11.705Z,18.00
2018-12-19T17:51:14.916Z,25.67
2018-12-19T17:54:18.157Z,18.77
2018-12-19T17:57:21.501Z,17.87
2018-12-19T18:00:24.729Z,25.67
2018-12-19T18:03:27.980Z,20.37
2018-12-19T18:06:31.214Z,21.70
2018-12-19T18:09:34.459Z,20.53
2018-12-19T18:12:37.770Z,20.60
2018-12-19T18:15:41.011Z,21.87
2018-12-19T18:18:44.229Z,16.10
2018-12-19T18:21:47.493Z,18.60
2018-12-19T18:24:50.753Z,15.97
2018-12-19T18:27:53.992Z,17.37
2018-12-19T18:30:57.225Z,16.83
2018-12-19T18:34:00.449Z,17.40
2018-12-19T18:37:03.733Z,19.30
2018-12-19T18:40:07.120Z,18.13
2018-12-19T18:43:13.051Z,22.00
2018-12-19T18:46:15.629Z,17.50
2018-12-19T18:49:18.874Z,15.50
2018-12-19T18:52:22.102Z,15.93
2018-12-19T18:55:25.467Z,13.43
2018-12-19T18:58:28.665Z,12.57
2018-12-19T19:01:31.984Z,12.07
2018-12-19T19:04:35.356Z,14.07
2018-12-19T19:07:38.568Z,9.37
2018-12-19T19:10:41.894Z,9.93
2018-12-19T19:13:45.161Z,10.10
2018-12-19T19:16:48.422Z,9.93
2018-12-19T19:19:51.676Z,7.37
2018-12-19T19:22:54.902Z,7.63
2018-12-19T19:25:58.163Z,11.63
2018-12-19T19:29:01.371Z,7.83
2018-12-19T19:32:04.651Z,7.20
2018-12-19T19:35:07.916Z,6.37
2018-12-19T19:38:11.184Z,6.73
2018-12-19T19:41:14.494Z,5.83
2018-12-19T19:44:17.812Z,5.23
2018-12-19T19:47:21.013Z,4.90
2018-12-19T19:50:24.307Z,5.03
2018-12-19T19:53:27.514Z,4.33
2018-12-19T19:56:30.795Z,5.13
2018-12-19T19:59:34.000Z,3.70
2018-12-19T20:02:37.245Z,4.27
2018-12-19T20:05:40.492Z,3.00
2018-12-19T20:08:43.756Z,4.93
2018-12-19T20:11:46.989Z,3.63
2018-12-19T20:14:50.306Z,2.77
2018-12-19T20:17:53.529Z,2.97
2018-12-19T20:20:56.773Z,4.07
2018-12-19T20:24:00.006Z,4.07
2018-12-19T20:27:03.222Z,2.97
2018-12-19T20:30:09.319Z,2.93
2018-12-19T20:33:12.591Z,2.70
2018-12-19T20:36:15.816Z,3.03
2018-12-19T20:39:19.058Z,7.13
2018-12-19T20:42:22.303Z,2.50
2018-12-19T20:45:25.577Z,2.90
2018-12-19T20:48:28.820Z,2.53
2018-12-19T20:51:32.048Z,3.40
2018-12-19T20:54:35.269Z,4.07
2018-12-19T20:57:38.518Z,4.17
2018-12-19T21:00:41.864Z,3.70
2018-12-19T21:03:45.337Z,3.27
2018-12-19T21:06:48.714Z,2.90
2018-12-19T21:09:51.940Z,3.30
2018-12-19T21:12:55.258Z,3.07
2018-12-19T21:15:58.522Z,3.40
2018-12-19T21:19:01.734Z,3.10
2018-12-19T21:22:09.026Z,3.13
2018-12-19T21:25:12.238Z,3.67
2018-12-19T21:28:15.466Z,6.27
2018-12-19T21:31:18.717Z,3.90
2018-12-19T21:34:21.944Z,3.50
2018-12-19T21:37:25.186Z,3.07
2018-12-19T21:40:28.517Z,3.37
2018-12-19T21:43:31.827Z,3.93
2018-12-19T21:46:35.080Z,2.17
2018-12-19T21:49:38.338Z,3.60
2018-12-19T21:52:41.703Z,2.83
2018-12-19T21:55:45.074Z,2.50
2018-12-19T21:58:48.445Z,3.77
2018-12-19T22:01:51.759Z,2.70
2018-12-19T22:04:55.004Z,3.00
2018-12-19T22:07:58.220Z,2.50
2018-12-19T22:11:01.520Z,2.93
2018-12-19T22:14:04.900Z,3.10
2018-12-19T22:20:47.574Z,4.47
2018-12-19T22:23:50.799Z,2.73
2018-12-19T22:26:54.133Z,2.87
2018-12-19T22:29:57.435Z,3.23
2018-12-19T22:33:00.644Z,4.30
2018-12-19T22:36:03.919Z,2.73
2018-12-19T22:42:24.892Z,1.90
2018-12-19T22:45:28.228Z,2.00
2018-12-19T22:48:31.547Z,2.13
2018-12-19T22:51:34.836Z,2.43
2018-12-19T22:54:38.084Z,2.40
2018-12-19T22:57:41.457Z,3.27
2018-12-19T23:00:51.937Z,2.27
2018-12-19T23:04:00.759Z,2.23
2018-12-19T23:07:04.210Z,2.60
2018-12-19T23:10:07.617Z,2.63
2018-12-19T23:13:10.857Z,2.70
2018-12-19T23:16:14.131Z,1.80
2018-12-19T23:19:17.447Z,1.97
2018-12-19T23:22:20.748Z,1.73
2018-12-19T23:25:24.135Z,2.03
2018-12-19T23:28:27.369Z,3.13
2018-12-19T23:31:30.728Z,2.93
2018-12-19T23:34:34.201Z,2.63
2018-12-19T23:37:37.593Z,2.77
2018-12-19T23:40:40.934Z,2.17
2018-12-19T23:43:44.232Z,3.17
2018-12-19T23:46:47.673Z,2.10
2018-12-19T23:49:51.005Z,3.70
2018-12-19T23:52:54.225Z,3.07
2018-12-19T23:55:57.463Z,2.87
2018-12-19T23:59:00.812Z,3.93
